sensor_id;sensor_type;location;lat;lon;timestamp;temperature;humidity
59146;DHT22;44928;53.074;6.646;2023-03-31T00:00:29;10.70;99.90
59146;DHT22;44928;53.074;6.646;2023-03-31T00:02:55;10.70;99.90
59146;DHT22;44928;53.074;6.646;2023-03-31T00:05:23;10.70;99.90
59146;DHT22;44928;53.074;6.646;2023-03-31T00:07:56;10.70;99.90
59146;DHT22;44928;53.074;6.646;2023-03-31T00:10:27;10.80;99.90
59146;DHT22;44928;53.074;6.646;2023-03-31T00:12:53;10.80;99.90
59146;DHT22;44928;53.074;6.646;2023-03-31T00:15:19;10.80;99.90
59146;DHT22;44928;53.074;6.646;2023-03-31T00:17:45;10.80;99.90
59146;DHT22;44928;53.074;6.646;2023-03-31T00:20:12;10.80;99.90
59146;DHT22;44928;53.074;6.646;2023-03-31T00:22:39;10.90;99.90
59146;DHT22;44928;53.074;6.646;2023-03-31T00:25:08;10.90;99.90
59146;DHT22;44928;53.074;6.646;2023-03-31T00:27:35;10.90;99.90
59146;DHT22;44928;53.074;6.646;2023-03-31T00:30:01;10.90;99.90
59146;DHT22;44928;53.074;6.646;2023-03-31T00:32:27;10.90;99.90
59146;DHT22;44928;53.074;6.646;2023-03-31T00:34:53;10.80;99.90
59146;DHT22;44928;53.074;6.646;2023-03-31T00:37:19;10.80;99.90
59146;DHT22;44928;53.074;6.646;2023-03-31T00:39:44;10.80;99.90
59146;DHT22;44928;53.074;6.646;2023-03-31T00:42:11;10.80;99.90
59146;DHT22;44928;53.074;6.646;2023-03-31T00:47:45;10.80;99.90
59146;DHT22;44928;53.074;6.646;2023-03-31T00:50:25;10.80;99.90
59146;DHT22;44928;53.074;6.646;2023-03-31T00:53:02;10.80;99.90
59146;DHT22;44928;53.074;6.646;2023-03-31T00:55:34;10.80;99.90
59146;DHT22;44928;53.074;6.646;2023-03-31T00:58:03;10.70;99.90
59146;DHT22;44928;53.074;6.646;2023-03-31T01:00:30;10.70;99.90
59146;DHT22;44928;53.074;6.646;2023-03-31T01:02:58;10.70;99.90
59146;DHT22;44928;53.074;6.646;2023-03-31T01:05:42;10.70;99.90
59146;DHT22;44928;53.074;6.646;2023-03-31T01:08:09;10.60;99.90
59146;DHT22;44928;53.074;6.646;2023-03-31T01:10:40;10.60;99.90
59146;DHT22;44928;53.074;6.646;2023-03-31T01:13:10;10.50;99.90
59146;DHT22;44928;53.074;6.646;2023-03-31T01:15:37;10.50;99.90
59146;DHT22;44928;53.074;6.646;2023-03-31T01:18:05;10.50;99.90
59146;DHT22;44928;53.074;6.646;2023-03-31T01:28:58;10.30;99.90
59146;DHT22;44928;53.074;6.646;2023-03-31T01:31:45;10.30;99.90
59146;DHT22;44928;53.074;6.646;2023-03-31T01:48:16;10.10;99.90
59146;DHT22;44928;53.074;6.646;2023-03-31T01:51:16;10.10;99.90
59146;DHT22;44928;53.074;6.646;2023-03-31T01:54:00;10.00;99.90
59146;DHT22;44928;53.074;6.646;2023-03-31T01:57:04;10.00;99.90
59146;DHT22;44928;53.074;6.646;2023-03-31T01:59:54;10.00;99.90
59146;DHT22;44928;53.074;6.646;2023-03-31T02:02:31;10.00;99.90
59146;DHT22;44928;53.074;6.646;2023-03-31T02:05:09;10.00;99.90
59146;DHT22;44928;53.074;6.646;2023-03-31T02:07:42;10.00;99.90
59146;DHT22;44928;53.074;6.646;2023-03-31T02:10:11;10.00;99.90
59146;DHT22;44928;53.074;6.646;2023-03-31T02:12:40;10.00;99.90
59146;DHT22;44928;53.074;6.646;2023-03-31T02:15:10;10.00;99.90
59146;DHT22;44928;53.074;6.646;2023-03-31T02:17:39;9.90;99.90
59146;DHT22;44928;53.074;6.646;2023-03-31T02:20:13;9.90;99.90
59146;DHT22;44928;53.074;6.646;2023-03-31T02:22:43;9.90;99.90
59146;DHT22;44928;53.074;6.646;2023-03-31T02:25:14;9.90;99.90
59146;DHT22;44928;53.074;6.646;2023-03-31T02:27:42;9.90;99.90
59146;DHT22;44928;53.074;6.646;2023-03-31T02:30:10;9.90;99.90
59146;DHT22;44928;53.074;6.646;2023-03-31T02:32:39;9.90;99.90
59146;DHT22;44928;53.074;6.646;2023-03-31T02:35:12;9.80;99.90
59146;DHT22;44928;53.074;6.646;2023-03-31T02:37:40;9.80;99.90
59146;DHT22;44928;53.074;6.646;2023-03-31T02:40:13;9.80;99.90
59146;DHT22;44928;53.074;6.646;2023-03-31T02:42:41;9.80;99.90
59146;DHT22;44928;53.074;6.646;2023-03-31T02:45:47;9.80;99.90
59146;DHT22;44928;53.074;6.646;2023-03-31T02:48:33;9.90;99.90
59146;DHT22;44928;53.074;6.646;2023-03-31T02:56:24;9.90;99.90
59146;DHT22;44928;53.074;6.646;2023-03-31T03:04:35;9.90;99.90
59146;DHT22;44928;53.074;6.646;2023-03-31T03:10:00;9.90;99.90
59146;DHT22;44928;53.074;6.646;2023-03-31T03:15:25;9.90;99.90
59146;DHT22;44928;53.074;6.646;2023-03-31T03:17:54;9.90;99.90
59146;DHT22;44928;53.074;6.646;2023-03-31T03:20:21;9.80;99.90
59146;DHT22;44928;53.074;6.646;2023-03-31T03:22:47;9.80;99.90
59146;DHT22;44928;53.074;6.646;2023-03-31T03:25:14;9.80;99.90
59146;DHT22;44928;53.074;6.646;2023-03-31T03:27:41;9.80;99.90
59146;DHT22;44928;53.074;6.646;2023-03-31T03:30:10;9.80;99.90
59146;DHT22;44928;53.074;6.646;2023-03-31T03:32:36;9.80;99.90
59146;DHT22;44928;53.074;6.646;2023-03-31T03:35:04;9.80;99.90
59146;DHT22;44928;53.074;6.646;2023-03-31T03:37:31;9.80;99.90
59146;DHT22;44928;53.074;6.646;2023-03-31T03:39:57;9.80;99.90
59146;DHT22;44928;53.074;6.646;2023-03-31T03:42:23;9.80;99.90
59146;DHT22;44928;53.074;6.646;2023-03-31T03:44:49;9.80;99.90
59146;DHT22;44928;53.074;6.646;2023-03-31T03:47:15;9.80;99.90
59146;DHT22;44928;53.074;6.646;2023-03-31T03:49:40;9.80;99.90
59146;DHT22;44928;53.074;6.646;2023-03-31T03:52:07;9.90;99.90
59146;DHT22;44928;53.074;6.646;2023-03-31T03:54:32;9.90;99.90
59146;DHT22;44928;53.074;6.646;2023-03-31T03:56:58;9.90;99.90
59146;DHT22;44928;53.074;6.646;2023-03-31T03:59:24;10.00;99.90
59146;DHT22;44928;53.074;6.646;2023-03-31T04:01:50;10.00;99.90
59146;DHT22;44928;53.074;6.646;2023-03-31T04:04:17;10.00;99.90
59146;DHT22;44928;53.074;6.646;2023-03-31T04:06:43;10.00;99.90
59146;DHT22;44928;53.074;6.646;2023-03-31T04:09:09;10.00;99.90
59146;DHT22;44928;53.074;6.646;2023-03-31T04:11:35;10.00;99.90
59146;DHT22;44928;53.074;6.646;2023-03-31T04:14:00;10.00;99.90
59146;DHT22;44928;53.074;6.646;2023-03-31T04:16:26;10.10;99.90
59146;DHT22;44928;53.074;6.646;2023-03-31T04:18:53;10.00;99.90
59146;DHT22;44928;53.074;6.646;2023-03-31T04:21:22;10.00;99.90
59146;DHT22;44928;53.074;6.646;2023-03-31T04:23:53;10.00;99.90
59146;DHT22;44928;53.074;6.646;2023-03-31T04:26:31;10.10;99.90
59146;DHT22;44928;53.074;6.646;2023-03-31T04:29:08;10.00;99.90
59146;DHT22;44928;53.074;6.646;2023-03-31T04:31:34;10.00;99.90
59146;DHT22;44928;53.074;6.646;2023-03-31T04:34:04;10.10;99.90
59146;DHT22;44928;53.074;6.646;2023-03-31T04:36:34;10.10;99.90
59146;DHT22;44928;53.074;6.646;2023-03-31T04:38:59;10.10;99.90
59146;DHT22;44928;53.074;6.646;2023-03-31T04:41:26;10.00;99.90
59146;DHT22;44928;53.074;6.646;2023-03-31T04:43:52;10.10;99.90
59146;DHT22;44928;53.074;6.646;2023-03-31T04:46:18;10.00;99.90
59146;DHT22;44928;53.074;6.646;2023-03-31T04:48:44;10.00;99.90
59146;DHT22;44928;53.074;6.646;2023-03-31T04:51:10;10.00;99.90
59146;DHT22;44928;53.074;6.646;2023-03-31T04:53:36;10.00;99.90
59146;DHT22;44928;53.074;6.646;2023-03-31T04:56:02;10.00;99.90
59146;DHT22;44928;53.074;6.646;2023-03-31T04:58:28;10.00;99.90
59146;DHT22;44928;53.074;6.646;2023-03-31T05:00:54;10.00;99.90
59146;DHT22;44928;53.074;6.646;2023-03-31T05:03:20;10.00;99.90
59146;DHT22;44928;53.074;6.646;2023-03-31T05:05:46;10.00;99.90
59146;DHT22;44928;53.074;6.646;2023-03-31T05:08:11;10.00;99.90
59146;DHT22;44928;53.074;6.646;2023-03-31T05:10:37;10.00;99.90
59146;DHT22;44928;53.074;6.646;2023-03-31T05:13:03;10.00;99.90
59146;DHT22;44928;53.074;6.646;2023-03-31T05:15:29;10.00;99.90
59146;DHT22;44928;53.074;6.646;2023-03-31T05:17:57;10.00;99.90
59146;DHT22;44928;53.074;6.646;2023-03-31T05:20:23;10.00;99.90
59146;DHT22;44928;53.074;6.646;2023-03-31T05:22:49;10.00;99.90
59146;DHT22;44928;53.074;6.646;2023-03-31T05:25:15;10.00;99.90
59146;DHT22;44928;53.074;6.646;2023-03-31T05:27:46;10.00;99.90
59146;DHT22;44928;53.074;6.646;2023-03-31T05:30:14;10.00;99.90
59146;DHT22;44928;53.074;6.646;2023-03-31T05:32:40;10.00;99.90
59146;DHT22;44928;53.074;6.646;2023-03-31T05:35:07;10.00;99.90
59146;DHT22;44928;53.074;6.646;2023-03-31T05:37:33;10.10;99.90
59146;DHT22;44928;53.074;6.646;2023-03-31T05:39:59;10.10;99.90
59146;DHT22;44928;53.074;6.646;2023-03-31T05:42:24;10.00;99.90
59146;DHT22;44928;53.074;6.646;2023-03-31T05:44:50;10.00;99.90
59146;DHT22;44928;53.074;6.646;2023-03-31T05:47:16;10.00;99.90
59146;DHT22;44928;53.074;6.646;2023-03-31T05:49:42;10.00;99.90
59146;DHT22;44928;53.074;6.646;2023-03-31T05:52:09;10.00;99.90
59146;DHT22;44928;53.074;6.646;2023-03-31T05:54:35;10.00;99.90
59146;DHT22;44928;53.074;6.646;2023-03-31T05:57:01;10.00;99.90
59146;DHT22;44928;53.074;6.646;2023-03-31T05:59:26;10.00;99.90
59146;DHT22;44928;53.074;6.646;2023-03-31T06:01:52;10.00;99.90
59146;DHT22;44928;53.074;6.646;2023-03-31T06:04:18;10.00;99.90
59146;DHT22;44928;53.074;6.646;2023-03-31T06:06:44;10.00;99.90
59146;DHT22;44928;53.074;6.646;2023-03-31T06:09:11;10.00;99.90
59146;DHT22;44928;53.074;6.646;2023-03-31T06:11:37;10.00;99.90
59146;DHT22;44928;53.074;6.646;2023-03-31T06:14:03;10.10;99.90
59146;DHT22;44928;53.074;6.646;2023-03-31T06:16:29;10.00;99.90
59146;DHT22;44928;53.074;6.646;2023-03-31T06:18:55;10.00;99.90
59146;DHT22;44928;53.074;6.646;2023-03-31T06:21:21;10.00;99.90
59146;DHT22;44928;53.074;6.646;2023-03-31T06:23:47;10.10;99.90
59146;DHT22;44928;53.074;6.646;2023-03-31T06:26:17;10.10;99.90
59146;DHT22;44928;53.074;6.646;2023-03-31T06:28:44;10.10;99.90
59146;DHT22;44928;53.074;6.646;2023-03-31T06:31:13;10.10;99.90
59146;DHT22;44928;53.074;6.646;2023-03-31T06:33:40;10.10;99.90
59146;DHT22;44928;53.074;6.646;2023-03-31T06:36:07;10.10;99.90
59146;DHT22;44928;53.074;6.646;2023-03-31T06:38:35;10.10;99.90
59146;DHT22;44928;53.074;6.646;2023-03-31T06:41:01;10.10;99.90
59146;DHT22;44928;53.074;6.646;2023-03-31T06:43:27;10.10;99.90
59146;DHT22;44928;53.074;6.646;2023-03-31T06:45:53;10.10;99.90
59146;DHT22;44928;53.074;6.646;2023-03-31T06:48:20;10.10;99.90
59146;DHT22;44928;53.074;6.646;2023-03-31T06:50:46;10.10;99.90
59146;DHT22;44928;53.074;6.646;2023-03-31T06:53:12;10.10;99.90
59146;DHT22;44928;53.074;6.646;2023-03-31T06:55:38;10.10;99.90
59146;DHT22;44928;53.074;6.646;2023-03-31T06:58:04;10.10;99.90
59146;DHT22;44928;53.074;6.646;2023-03-31T07:00:31;10.10;99.90
59146;DHT22;44928;53.074;6.646;2023-03-31T07:02:57;10.10;99.90
59146;DHT22;44928;53.074;6.646;2023-03-31T07:05:23;10.10;99.90
59146;DHT22;44928;53.074;6.646;2023-03-31T07:07:53;10.10;99.90
59146;DHT22;44928;53.074;6.646;2023-03-31T07:10:19;10.10;99.90
59146;DHT22;44928;53.074;6.646;2023-03-31T07:12:45;10.10;99.90
59146;DHT22;44928;53.074;6.646;2023-03-31T07:15:10;10.10;99.90
59146;DHT22;44928;53.074;6.646;2023-03-31T07:17:36;10.20;99.90
59146;DHT22;44928;53.074;6.646;2023-03-31T07:20:07;10.20;99.90
59146;DHT22;44928;53.074;6.646;2023-03-31T07:22:41;10.20;99.90
59146;DHT22;44928;53.074;6.646;2023-03-31T07:25:08;10.20;99.90
59146;DHT22;44928;53.074;6.646;2023-03-31T07:27:35;10.20;99.90
59146;DHT22;44928;53.074;6.646;2023-03-31T07:30:01;10.20;99.90
59146;DHT22;44928;53.074;6.646;2023-03-31T07:32:26;10.20;99.90
59146;DHT22;44928;53.074;6.646;2023-03-31T07:34:52;10.20;99.90
59146;DHT22;44928;53.074;6.646;2023-03-31T07:37:18;10.20;99.90
59146;DHT22;44928;53.074;6.646;2023-03-31T07:39:44;10.20;99.90
59146;DHT22;44928;53.074;6.646;2023-03-31T07:42:10;10.20;99.90
59146;DHT22;44928;53.074;6.646;2023-03-31T07:44:36;10.20;99.90
59146;DHT22;44928;53.074;6.646;2023-03-31T07:47:02;10.20;99.90
59146;DHT22;44928;53.074;6.646;2023-03-31T07:49:33;10.20;99.90
59146;DHT22;44928;53.074;6.646;2023-03-31T07:52:00;10.20;99.90
59146;DHT22;44928;53.074;6.646;2023-03-31T07:54:26;10.20;99.90
59146;DHT22;44928;53.074;6.646;2023-03-31T07:56:52;10.10;99.90
59146;DHT22;44928;53.074;6.646;2023-03-31T07:59:18;10.20;99.90
59146;DHT22;44928;53.074;6.646;2023-03-31T08:01:44;10.20;99.90
59146;DHT22;44928;53.074;6.646;2023-03-31T08:04:11;10.20;99.90
59146;DHT22;44928;53.074;6.646;2023-03-31T08:06:37;10.20;99.90
59146;DHT22;44928;53.074;6.646;2023-03-31T08:09:04;10.20;99.90
59146;DHT22;44928;53.074;6.646;2023-03-31T08:11:31;10.20;99.90
59146;DHT22;44928;53.074;6.646;2023-03-31T08:13:57;10.20;99.90
59146;DHT22;44928;53.074;6.646;2023-03-31T08:16:23;10.20;99.90
59146;DHT22;44928;53.074;6.646;2023-03-31T08:18:49;10.20;99.90
59146;DHT22;44928;53.074;6.646;2023-03-31T08:21:15;10.20;99.90
59146;DHT22;44928;53.074;6.646;2023-03-31T08:23:41;10.20;99.90
59146;DHT22;44928;53.074;6.646;2023-03-31T08:26:10;10.30;99.90
59146;DHT22;44928;53.074;6.646;2023-03-31T08:28:37;10.30;99.90
59146;DHT22;44928;53.074;6.646;2023-03-31T08:31:04;10.30;99.90
59146;DHT22;44928;53.074;6.646;2023-03-31T08:33:31;10.30;99.90
59146;DHT22;44928;53.074;6.646;2023-03-31T08:36:01;10.40;99.90
59146;DHT22;44928;53.074;6.646;2023-03-31T08:38:27;10.40;99.90
59146;DHT22;44928;53.074;6.646;2023-03-31T08:40:58;10.40;99.90
59146;DHT22;44928;53.074;6.646;2023-03-31T08:43:30;10.50;99.90
59146;DHT22;44928;53.074;6.646;2023-03-31T08:45:57;10.50;99.90
59146;DHT22;44928;53.074;6.646;2023-03-31T08:48:27;10.50;99.90
59146;DHT22;44928;53.074;6.646;2023-03-31T08:51:16;10.50;99.90
59146;DHT22;44928;53.074;6.646;2023-03-31T08:56:25;10.60;99.90
59146;DHT22;44928;53.074;6.646;2023-03-31T08:58:52;10.60;99.90
59146;DHT22;44928;53.074;6.646;2023-03-31T09:06:37;10.60;99.90
59146;DHT22;44928;53.074;6.646;2023-03-31T09:09:09;10.60;99.90
59146;DHT22;44928;53.074;6.646;2023-03-31T09:11:52;10.60;99.90
59146;DHT22;44928;53.074;6.646;2023-03-31T09:14:41;10.60;99.90
59146;DHT22;44928;53.074;6.646;2023-03-31T09:17:22;10.60;99.90
59146;DHT22;44928;53.074;6.646;2023-03-31T09:20:17;10.60;99.90
59146;DHT22;44928;53.074;6.646;2023-03-31T09:22:49;10.60;99.90
59146;DHT22;44928;53.074;6.646;2023-03-31T09:25:26;10.60;99.90
59146;DHT22;44928;53.074;6.646;2023-03-31T09:27:55;10.70;99.90
59146;DHT22;44928;53.074;6.646;2023-03-31T09:30:30;10.70;99.90
59146;DHT22;44928;53.074;6.646;2023-03-31T09:33:15;10.70;99.90
59146;DHT22;44928;53.074;6.646;2023-03-31T09:35:42;10.70;99.90
59146;DHT22;44928;53.074;6.646;2023-03-31T09:38:12;10.80;99.90
59146;DHT22;44928;53.074;6.646;2023-03-31T09:40:39;10.80;99.90
59146;DHT22;44928;53.074;6.646;2023-03-31T09:43:07;10.80;99.90
59146;DHT22;44928;53.074;6.646;2023-03-31T09:45:34;10.80;99.90
59146;DHT22;44928;53.074;6.646;2023-03-31T09:48:11;10.80;99.90
59146;DHT22;44928;53.074;6.646;2023-03-31T09:50:43;10.80;99.90
59146;DHT22;44928;53.074;6.646;2023-03-31T09:53:31;10.90;99.90
59146;DHT22;44928;53.074;6.646;2023-03-31T09:56:04;10.90;99.90
59146;DHT22;44928;53.074;6.646;2023-03-31T09:58:42;10.90;99.90
59146;DHT22;44928;53.074;6.646;2023-03-31T10:01:10;11.00;99.90
59146;DHT22;44928;53.074;6.646;2023-03-31T10:03:49;11.00;99.90
59146;DHT22;44928;53.074;6.646;2023-03-31T10:06:15;11.00;99.90
59146;DHT22;44928;53.074;6.646;2023-03-31T10:11:13;11.10;99.90
59146;DHT22;44928;53.074;6.646;2023-03-31T10:13:47;11.10;99.90
59146;DHT22;44928;53.074;6.646;2023-03-31T10:18:46;11.10;99.90
59146;DHT22;44928;53.074;6.646;2023-03-31T10:21:25;11.20;99.90
59146;DHT22;44928;53.074;6.646;2023-03-31T10:23:52;11.20;99.90
59146;DHT22;44928;53.074;6.646;2023-03-31T10:26:22;11.20;99.90
59146;DHT22;44928;53.074;6.646;2023-03-31T10:28:51;11.20;99.90
59146;DHT22;44928;53.074;6.646;2023-03-31T10:31:18;11.30;99.90
59146;DHT22;44928;53.074;6.646;2023-03-31T10:33:49;11.20;99.90
59146;DHT22;44928;53.074;6.646;2023-03-31T10:36:23;11.20;99.90
59146;DHT22;44928;53.074;6.646;2023-03-31T10:38:51;11.20;99.90
59146;DHT22;44928;53.074;6.646;2023-03-31T10:41:23;11.20;99.90
59146;DHT22;44928;53.074;6.646;2023-03-31T10:43:51;11.20;99.90
59146;DHT22;44928;53.074;6.646;2023-03-31T10:46:18;11.20;99.90
59146;DHT22;44928;53.074;6.646;2023-03-31T10:48:44;11.20;99.90
59146;DHT22;44928;53.074;6.646;2023-03-31T10:51:16;11.20;99.90
59146;DHT22;44928;53.074;6.646;2023-03-31T10:53:49;11.30;99.90
59146;DHT22;44928;53.074;6.646;2023-03-31T10:56:41;11.30;99.90
59146;DHT22;44928;53.074;6.646;2023-03-31T10:59:23;11.40;99.90
59146;DHT22;44928;53.074;6.646;2023-03-31T11:07:46;11.80;99.90
59146;DHT22;44928;53.074;6.646;2023-03-31T11:13:13;12.10;99.90
59146;DHT22;44928;53.074;6.646;2023-03-31T11:18:34;12.20;99.90
59146;DHT22;44928;53.074;6.646;2023-03-31T11:21:29;12.20;99.90
59146;DHT22;44928;53.074;6.646;2023-03-31T11:29:53;12.40;99.90
59146;DHT22;44928;53.074;6.646;2023-03-31T11:42:41;12.70;99.90
59146;DHT22;44928;53.074;6.646;2023-03-31T11:45:20;12.70;99.90
59146;DHT22;44928;53.074;6.646;2023-03-31T11:47:51;12.60;99.90
59146;DHT22;44928;53.074;6.646;2023-03-31T11:50:24;12.50;99.90
59146;DHT22;44928;53.074;6.646;2023-03-31T11:53:23;12.50;99.90
59146;DHT22;44928;53.074;6.646;2023-03-31T11:55:48;12.50;99.90
59146;DHT22;44928;53.074;6.646;2023-03-31T12:01:53;12.80;99.90
59146;DHT22;44928;53.074;6.646;2023-03-31T12:07:07;12.90;99.90
59146;DHT22;44928;53.074;6.646;2023-03-31T12:12:39;12.80;99.90
59146;DHT22;44928;53.074;6.646;2023-03-31T12:15:26;12.80;99.90
59146;DHT22;44928;53.074;6.646;2023-03-31T12:18:13;12.90;99.90
59146;DHT22;44928;53.074;6.646;2023-03-31T12:20:44;12.90;99.90
59146;DHT22;44928;53.074;6.646;2023-03-31T12:23:17;12.90;99.90
59146;DHT22;44928;53.074;6.646;2023-03-31T12:25:54;12.90;99.90
59146;DHT22;44928;53.074;6.646;2023-03-31T12:28:31;12.90;99.90
59146;DHT22;44928;53.074;6.646;2023-03-31T12:31:00;12.90;99.90
59146;DHT22;44928;53.074;6.646;2023-03-31T12:33:31;12.90;99.90
59146;DHT22;44928;53.074;6.646;2023-03-31T12:42:18;12.90;99.90
59146;DHT22;44928;53.074;6.646;2023-03-31T12:55:31;13.10;99.90
59146;DHT22;44928;53.074;6.646;2023-03-31T13:01:21;13.30;99.90
59146;DHT22;44928;53.074;6.646;2023-03-31T13:09:04;13.40;99.90
59146;DHT22;44928;53.074;6.646;2023-03-31T13:14:23;13.40;99.90
59146;DHT22;44928;53.074;6.646;2023-03-31T13:16:50;13.40;99.90
59146;DHT22;44928;53.074;6.646;2023-03-31T13:19:33;13.30;99.90
59146;DHT22;44928;53.074;6.646;2023-03-31T13:22:01;13.30;99.90
59146;DHT22;44928;53.074;6.646;2023-03-31T13:24:29;13.40;99.90
59146;DHT22;44928;53.074;6.646;2023-03-31T13:26:57;13.40;99.90
59146;DHT22;44928;53.074;6.646;2023-03-31T13:29:37;13.40;99.90
59146;DHT22;44928;53.074;6.646;2023-03-31T13:32:06;13.30;99.90
59146;DHT22;44928;53.074;6.646;2023-03-31T13:34:42;13.20;99.90
59146;DHT22;44928;53.074;6.646;2023-03-31T13:37:21;13.20;99.90
59146;DHT22;44928;53.074;6.646;2023-03-31T13:43:15;13.10;99.90
59146;DHT22;44928;53.074;6.646;2023-03-31T14:05:38;12.30;99.90
59146;DHT22;44928;53.074;6.646;2023-03-31T14:08:11;12.20;99.90
59146;DHT22;44928;53.074;6.646;2023-03-31T14:10:40;12.00;99.90
59146;DHT22;44928;53.074;6.646;2023-03-31T14:13:10;11.90;99.90
59146;DHT22;44928;53.074;6.646;2023-03-31T14:18:10;11.70;99.90
59146;DHT22;44928;53.074;6.646;2023-03-31T14:20:40;11.60;99.90
59146;DHT22;44928;53.074;6.646;2023-03-31T14:23:29;11.60;99.90
59146;DHT22;44928;53.074;6.646;2023-03-31T14:28:54;11.70;99.90
59146;DHT22;44928;53.074;6.646;2023-03-31T14:34:14;11.90;99.90
59146;DHT22;44928;53.074;6.646;2023-03-31T14:36:59;12.20;99.90
59146;DHT22;44928;53.074;6.646;2023-03-31T14:39:42;12.40;99.90
59146;DHT22;44928;53.074;6.646;2023-03-31T14:42:17;12.40;99.90
59146;DHT22;44928;53.074;6.646;2023-03-31T14:44:44;12.50;99.90
59146;DHT22;44928;53.074;6.646;2023-03-31T14:47:21;12.50;99.90
59146;DHT22;44928;53.074;6.646;2023-03-31T14:50:00;12.60;99.90
59146;DHT22;44928;53.074;6.646;2023-03-31T14:52:29;12.70;99.90
59146;DHT22;44928;53.074;6.646;2023-03-31T14:54:58;12.80;99.90
59146;DHT22;44928;53.074;6.646;2023-03-31T14:57:30;12.80;99.90
59146;DHT22;44928;53.074;6.646;2023-03-31T14:59:57;12.80;99.90
59146;DHT22;44928;53.074;6.646;2023-03-31T15:02:33;12.80;99.90
59146;DHT22;44928;53.074;6.646;2023-03-31T15:05:02;12.80;99.90
59146;DHT22;44928;53.074;6.646;2023-03-31T15:07:28;12.80;99.90
59146;DHT22;44928;53.074;6.646;2023-03-31T15:09:54;12.70;99.90
59146;DHT22;44928;53.074;6.646;2023-03-31T15:12:21;12.70;99.90
59146;DHT22;44928;53.074;6.646;2023-03-31T15:14:53;12.70;99.90
59146;DHT22;44928;53.074;6.646;2023-03-31T15:17:31;12.80;99.90
59146;DHT22;44928;53.074;6.646;2023-03-31T15:20:01;12.70;99.90
59146;DHT22;44928;53.074;6.646;2023-03-31T15:22:45;12.70;99.90
59146;DHT22;44928;53.074;6.646;2023-03-31T15:25:14;12.70;99.90
59146;DHT22;44928;53.074;6.646;2023-03-31T15:28:02;12.70;99.90
59146;DHT22;44928;53.074;6.646;2023-03-31T15:30:29;12.70;99.90
59146;DHT22;44928;53.074;6.646;2023-03-31T15:32:55;12.70;99.90
59146;DHT22;44928;53.074;6.646;2023-03-31T15:37:51;12.80;99.90
59146;DHT22;44928;53.074;6.646;2023-03-31T15:40:20;12.80;99.90
59146;DHT22;44928;53.074;6.646;2023-03-31T15:42:48;12.70;99.90
59146;DHT22;44928;53.074;6.646;2023-03-31T15:47:55;12.80;99.90
59146;DHT22;44928;53.074;6.646;2023-03-31T15:50:23;12.80;99.90
59146;DHT22;44928;53.074;6.646;2023-03-31T15:52:54;12.80;99.90
59146;DHT22;44928;53.074;6.646;2023-03-31T15:57:49;12.80;99.90
59146;DHT22;44928;53.074;6.646;2023-03-31T16:00:50;12.80;99.90
59146;DHT22;44928;53.074;6.646;2023-03-31T16:03:27;12.80;99.90
59146;DHT22;44928;53.074;6.646;2023-03-31T16:05:58;12.80;99.90
59146;DHT22;44928;53.074;6.646;2023-03-31T16:08:27;12.80;99.90
59146;DHT22;44928;53.074;6.646;2023-03-31T16:10:59;12.80;99.90
59146;DHT22;44928;53.074;6.646;2023-03-31T16:13:26;12.80;99.90
59146;DHT22;44928;53.074;6.646;2023-03-31T16:15:54;12.90;99.90
59146;DHT22;44928;53.074;6.646;2023-03-31T16:18:25;12.90;99.90
59146;DHT22;44928;53.074;6.646;2023-03-31T16:20:55;12.80;99.90
59146;DHT22;44928;53.074;6.646;2023-03-31T16:23:27;12.80;99.90
59146;DHT22;44928;53.074;6.646;2023-03-31T16:25:54;12.80;99.90
59146;DHT22;44928;53.074;6.646;2023-03-31T16:28:23;12.80;99.90
59146;DHT22;44928;53.074;6.646;2023-03-31T16:30:50;12.80;99.90
59146;DHT22;44928;53.074;6.646;2023-03-31T16:33:18;12.70;99.90
59146;DHT22;44928;53.074;6.646;2023-03-31T16:35:47;12.70;99.90
59146;DHT22;44928;53.074;6.646;2023-03-31T16:38:18;12.60;99.90
59146;DHT22;44928;53.074;6.646;2023-03-31T16:40:47;12.60;99.90
59146;DHT22;44928;53.074;6.646;2023-03-31T16:43:22;12.50;99.90
59146;DHT22;44928;53.074;6.646;2023-03-31T16:45:50;12.40;99.90
59146;DHT22;44928;53.074;6.646;2023-03-31T16:48:19;12.30;99.90
59146;DHT22;44928;53.074;6.646;2023-03-31T16:50:50;12.30;99.90
59146;DHT22;44928;53.074;6.646;2023-03-31T16:53:19;12.20;99.90
59146;DHT22;44928;53.074;6.646;2023-03-31T16:55:47;12.20;99.90
59146;DHT22;44928;53.074;6.646;2023-03-31T16:58:13;12.20;99.90
59146;DHT22;44928;53.074;6.646;2023-03-31T17:00:39;12.10;99.90
59146;DHT22;44928;53.074;6.646;2023-03-31T17:03:06;12.10;99.90
59146;DHT22;44928;53.074;6.646;2023-03-31T17:05:41;12.00;99.90
59146;DHT22;44928;53.074;6.646;2023-03-31T17:08:08;12.00;99.90
59146;DHT22;44928;53.074;6.646;2023-03-31T17:10:35;12.00;99.90
59146;DHT22;44928;53.074;6.646;2023-03-31T17:13:01;11.90;99.90
59146;DHT22;44928;53.074;6.646;2023-03-31T17:15:27;11.90;99.90
59146;DHT22;44928;53.074;6.646;2023-03-31T17:17:57;11.90;99.90
59146;DHT22;44928;53.074;6.646;2023-03-31T17:20:26;11.90;99.90
59146;DHT22;44928;53.074;6.646;2023-03-31T17:22:52;11.90;99.90
59146;DHT22;44928;53.074;6.646;2023-03-31T17:25:19;11.90;99.90
59146;DHT22;44928;53.074;6.646;2023-03-31T17:27:45;11.90;99.90
59146;DHT22;44928;53.074;6.646;2023-03-31T17:30:11;11.90;99.90
59146;DHT22;44928;53.074;6.646;2023-03-31T17:32:37;11.90;99.90
59146;DHT22;44928;53.074;6.646;2023-03-31T17:35:04;11.90;99.90
59146;DHT22;44928;53.074;6.646;2023-03-31T17:37:32;11.80;99.90
59146;DHT22;44928;53.074;6.646;2023-03-31T17:39:58;11.80;99.90
59146;DHT22;44928;53.074;6.646;2023-03-31T17:42:24;11.80;99.90
59146;DHT22;44928;53.074;6.646;2023-03-31T17:44:51;11.70;99.90
59146;DHT22;44928;53.074;6.646;2023-03-31T17:47:18;11.70;99.90
59146;DHT22;44928;53.074;6.646;2023-03-31T17:49:47;11.70;99.90
59146;DHT22;44928;53.074;6.646;2023-03-31T17:52:13;11.70;99.90
59146;DHT22;44928;53.074;6.646;2023-03-31T17:54:39;11.70;99.90
59146;DHT22;44928;53.074;6.646;2023-03-31T17:57:06;11.60;99.90
59146;DHT22;44928;53.074;6.646;2023-03-31T17:59:32;11.60;99.90
59146;DHT22;44928;53.074;6.646;2023-03-31T18:01:57;11.60;99.90
59146;DHT22;44928;53.074;6.646;2023-03-31T18:04:23;11.60;99.90
59146;DHT22;44928;53.074;6.646;2023-03-31T18:06:50;11.60;99.90
59146;DHT22;44928;53.074;6.646;2023-03-31T18:09:15;11.50;99.90
59146;DHT22;44928;53.074;6.646;2023-03-31T18:11:42;11.50;99.90
59146;DHT22;44928;53.074;6.646;2023-03-31T18:14:08;11.50;99.90
59146;DHT22;44928;53.074;6.646;2023-03-31T18:16:34;11.50;99.90
59146;DHT22;44928;53.074;6.646;2023-03-31T18:19:01;11.40;99.90
59146;DHT22;44928;53.074;6.646;2023-03-31T18:21:27;11.40;99.90
59146;DHT22;44928;53.074;6.646;2023-03-31T18:23:53;11.50;99.90
59146;DHT22;44928;53.074;6.646;2023-03-31T18:26:24;11.50;99.90
59146;DHT22;44928;53.074;6.646;2023-03-31T18:28:50;11.40;99.90